Time;durP1;ratioP1;P1;durP2;ratioP2;P2;SDS_P1;SDS_P2;PMS_P1;PMS_P2;Temp;Humidity;BMP_temperature;BMP_pressure;BME280_temperature;BME280_humidity;BME280_pressure;Samples;Min_cycle;Max_cycle;Signal;HPM_P1;HPM_P2
2020/12/02 00:02:29;;;;;;;44.57;21.53;;;-1.30;99.90;;;;;;5072219;28;20610;-71
2020/12/02 00:04:59;;;;;;;39.83;20.23;;;-1.40;99.90;;;;;;5072685;28;20240;-70
2020/12/02 00:07:29;;;;;;;45.40;20.77;;;-1.40;99.90;;;;;;5072339;28;20246;-71
2020/12/02 00:09:56;;;;;;;40.03;18.30;;;-1.40;99.90;;;;;;5072337;28;20296;-71
2020/12/02 00:12:23;;;;;;;39.57;20.70;;;-1.40;99.90;;;;;;5068582;28;20267;-70
2020/12/02 00:14:50;;;;;;;47.17;21.20;;;-1.50;99.90;;;;;;5073010;28;20287;-71
2020/12/02 00:17:18;;;;;;;42.73;20.87;;;-1.40;99.90;;;;;;5057905;28;20254;-71
2020/12/02 00:19:45;;;;;;;42.80;21.77;;;-1.50;99.90;;;;;;5072377;28;20254;-70
2020/12/02 00:22:14;;;;;;;40.57;19.93;;;-1.60;99.90;;;;;;5069397;28;20201;-70
2020/12/02 00:24:42;;;;;;;44.63;20.67;;;-1.50;99.90;;;;;;5068534;28;20300;-70
2020/12/02 00:27:11;;;;;;;41.87;19.83;;;-1.50;99.90;;;;;;5058577;28;20252;-70
2020/12/02 00:29:38;;;;;;;41.77;20.40;;;-1.60;99.90;;;;;;5072651;28;20253;-71
2020/12/02 00:32:04;;;;;;;40.93;20.33;;;-1.60;99.90;;;;;;5066358;28;20722;-72
2020/12/02 00:34:31;;;;;;;45.57;21.10;;;-1.60;99.90;;;;;;5064100;28;20238;-71
2020/12/02 00:36:57;;;;;;;43.20;21.30;;;-1.70;99.90;;;;;;5072223;28;20298;-72
2020/12/02 00:39:24;;;;;;;39.97;19.90;;;-1.70;99.90;;;;;;5071965;28;20252;-72
2020/12/02 00:41:51;;;;;;;42.47;20.80;;;-1.70;99.90;;;;;;5086014;28;20654;-72
2020/12/02 00:44:18;;;;;;;42.00;20.90;;;-1.70;99.90;;;;;;5077087;28;20250;-72
2020/12/02 00:46:47;;;;;;;41.07;19.77;;;-1.70;99.90;;;;;;5076739;28;20553;-73
2020/12/02 00:49:15;;;;;;;41.50;19.47;;;-1.70;99.90;;;;;;5084794;28;20260;-72
2020/12/02 00:51:42;;;;;;;40.30;21.27;;;-1.70;99.90;;;;;;5085497;28;20646;-72
2020/12/02 00:54:09;;;;;;;40.10;20.73;;;-1.70;99.90;;;;;;5083299;28;20228;-72
2020/12/02 00:56:39;;;;;;;40.53;19.53;;;-1.70;99.90;;;;;;5088025;28;20255;-72
2020/12/02 00:59:17;;;;;;;38.13;19.80;;;-1.70;99.90;;;;;;5089110;28;20204;-72
2020/12/02 01:01:53;;;;;;;42.50;20.47;;;-1.80;99.90;;;;;;5087115;28;20585;-72
2020/12/02 01:04:20;;;;;;;36.00;18.70;;;-1.80;99.90;;;;;;5089856;28;20770;-72
2020/12/02 01:06:50;;;;;;;41.47;19.23;;;-1.80;99.90;;;;;;5083116;28;20648;-71
2020/12/02 01:09:17;;;;;;;38.60;19.93;;;-1.80;99.90;;;;;;5087944;28;20221;-71
2020/12/02 01:11:45;;;;;;;41.63;18.37;;;-1.80;99.90;;;;;;5088016;28;20254;-71
2020/12/02 01:14:15;;;;;;;37.20;18.80;;;-1.90;99.90;;;;;;5082953;28;20646;-72
2020/12/02 01:16:44;;;;;;;41.07;20.37;;;-1.90;99.90;;;;;;5080940;28;20244;-71
2020/12/02 01:19:13;;;;;;;38.20;20.47;;;-1.90;99.90;;;;;;5082093;28;20248;-71
2020/12/02 01:21:45;;;;;;;37.83;19.43;;;-1.90;99.90;;;;;;5082658;28;20258;-72
2020/12/02 01:24:17;;;;;;;38.83;19.90;;;-1.90;99.90;;;;;;5064516;28;20201;-72
2020/12/02 01:26:50;;;;;;;39.77;19.50;;;-2.00;99.90;;;;;;5089767;28;20687;-73
2020/12/02 01:29:21;;;;;;;41.33;20.60;;;-2.00;99.90;;;;;;5083502;28;20239;-72
2020/12/02 01:31:50;;;;;;;41.27;20.07;;;-2.00;99.90;;;;;;5088486;28;20239;-73
2020/12/02 01:34:17;;;;;;;40.50;20.13;;;-2.00;99.90;;;;;;5075041;28;20213;-72
2020/12/02 01:36:58;;;;;;;43.03;20.07;;;-2.10;99.90;;;;;;5075457;28;20243;-71
2020/12/02 01:39:26;;;;;;;38.67;18.37;;;-2.10;99.90;;;;;;5072032;28;20751;-70
2020/12/02 01:41:52;;;;;;;41.47;19.63;;;-2.10;99.90;;;;;;5075575;28;20244;-72
2020/12/02 01:44:20;;;;;;;39.87;20.17;;;-2.10;99.90;;;;;;5076351;28;20243;-71
2020/12/02 01:46:59;;;;;;;43.17;19.67;;;-2.10;99.90;;;;;;5071927;28;20210;-73
2020/12/02 01:49:34;;;;;;;44.50;20.33;;;-2.10;99.90;;;;;;5073089;28;20212;-72
2020/12/02 01:52:11;;;;;;;37.70;18.83;;;-2.10;99.90;;;;;;5069038;28;20212;-72
2020/12/02 01:54:43;;;;;;;39.00;19.70;;;-2.20;99.90;;;;;;5071786;28;20231;-72
2020/12/02 01:57:16;;;;;;;42.73;18.63;;;-2.20;99.90;;;;;;5063985;28;20201;-72
2020/12/02 01:59:55;;;;;;;37.70;19.43;;;-2.20;99.90;;;;;;5076196;28;20231;-72
2020/12/02 02:02:27;;;;;;;44.13;18.53;;;-2.20;99.90;;;;;;5076326;28;20208;-72
2020/12/02 02:05:02;;;;;;;39.17;18.67;;;-2.30;99.90;;;;;;5073948;28;20209;-71
2020/12/02 02:07:28;;;;;;;37.60;18.87;;;-2.30;99.90;;;;;;5070612;28;20287;-70
2020/12/02 02:09:58;;;;;;;36.37;18.80;;;-2.30;99.90;;;;;;5074030;28;20640;-70
2020/12/02 02:13:10;;;;;;;32.87;17.40;;;-2.30;99.90;;;;;;5062932;28;20240;-70
2020/12/02 02:15:45;;;;;;;35.97;17.90;;;-2.30;99.90;;;;;;5056783;28;20213;-70
2020/12/02 02:18:14;;;;;;;37.73;18.90;;;-2.40;99.90;;;;;;5075914;28;20265;-70
2020/12/02 02:20:44;;;;;;;35.60;18.57;;;-2.40;99.90;;;;;;5081299;28;20200;-71
2020/12/02 02:23:12;;;;;;;39.10;19.07;;;-2.40;99.90;;;;;;5079315;28;20201;-71
2020/12/02 02:25:41;;;;;;;38.37;18.90;;;-2.40;99.90;;;;;;5089042;28;20686;-71
2020/12/02 02:28:09;;;;;;;37.20;19.20;;;-2.40;99.90;;;;;;5078022;28;20209;-71
2020/12/02 02:30:36;;;;;;;36.20;17.50;;;-2.40;99.90;;;;;;5086893;28;20229;-71
2020/12/02 02:33:04;;;;;;;34.00;17.37;;;-2.40;99.90;;;;;;5084254;28;20247;-71
2020/12/02 02:35:30;;;;;;;36.53;18.63;;;-2.40;99.90;;;;;;5075412;28;20616;-71
2020/12/02 02:37:57;;;;;;;36.40;17.87;;;-2.50;99.90;;;;;;5073940;28;20644;-71
2020/12/02 02:40:24;;;;;;;37.33;18.50;;;-2.50;99.90;;;;;;5075438;28;20724;-70
2020/12/02 02:42:52;;;;;;;34.37;17.23;;;-2.50;99.90;;;;;;5074718;28;20243;-71
2020/12/02 02:45:24;;;;;;;33.97;17.37;;;-2.50;99.90;;;;;;5074853;28;20630;-70
2020/12/02 02:47:51;;;;;;;35.67;17.83;;;-2.50;99.90;;;;;;5072925;28;20228;-71
2020/12/02 02:50:20;;;;;;;36.20;18.10;;;-2.50;99.90;;;;;;5070619;28;20228;-71
2020/12/02 02:52:47;;;;;;;37.87;18.03;;;-2.60;99.90;;;;;;5074540;28;20666;-71
2020/12/02 02:55:16;;;;;;;34.57;17.73;;;-2.60;99.90;;;;;;5070023;28;20654;-70
2020/12/02 02:57:42;;;;;;;30.83;17.30;;;-2.60;99.90;;;;;;5066621;28;20266;-70
2020/12/02 03:00:13;;;;;;;33.10;17.20;;;-2.50;99.90;;;;;;5070914;28;20259;-71
2020/12/02 03:02:40;;;;;;;29.83;16.60;;;-2.60;99.90;;;;;;5056715;28;20220;-70
2020/12/02 03:05:08;;;;;;;35.23;16.60;;;-2.50;99.90;;;;;;5068096;28;21383;-71
2020/12/02 03:07:35;;;;;;;31.80;14.43;;;-2.60;99.90;;;;;;5063578;28;20301;-69
2020/12/02 03:10:01;;;;;;;33.47;15.93;;;-2.60;99.90;;;;;;5073778;28;20302;-71
2020/12/02 03:12:29;;;;;;;27.73;15.87;;;-2.60;99.90;;;;;;5074052;28;20220;-71
2020/12/02 03:14:56;;;;;;;35.47;16.20;;;-2.60;99.90;;;;;;5073747;28;20604;-72
2020/12/02 03:17:25;;;;;;;33.57;17.13;;;-2.60;99.90;;;;;;5074635;28;20209;-71
2020/12/02 03:19:58;;;;;;;29.60;15.17;;;-2.60;99.90;;;;;;5074618;28;20258;-71
2020/12/02 03:22:27;;;;;;;28.23;15.13;;;-2.50;99.90;;;;;;5074034;28;20690;-71
2020/12/02 03:24:56;;;;;;;31.50;16.03;;;-2.50;99.90;;;;;;5072837;28;20279;-70
2020/12/02 03:27:23;;;;;;;28.50;14.30;;;-2.50;99.90;;;;;;5065001;28;20229;-70
2020/12/02 03:29:50;;;;;;;25.43;14.00;;;-2.50;99.90;;;;;;5065964;28;20232;-71
2020/12/02 03:32:17;;;;;;;26.73;14.27;;;-2.50;99.90;;;;;;5075711;28;20666;-71
2020/12/02 03:34:43;;;;;;;25.17;14.10;;;-2.60;99.90;;;;;;5073367;28;20310;-71
2020/12/02 03:37:13;;;;;;;37.10;16.13;;;-2.60;99.90;;;;;;5073103;28;20638;-70
2020/12/02 03:39:39;;;;;;;33.00;15.60;;;-2.70;99.90;;;;;;5064249;28;20248;-71
2020/12/02 03:42:06;;;;;;;28.97;14.80;;;-2.70;99.90;;;;;;5081191;28;20267;-70
2020/12/02 03:44:32;;;;;;;27.90;14.97;;;-2.70;99.90;;;;;;5084378;28;20202;-70
2020/12/02 03:46:59;;;;;;;25.33;14.07;;;-2.70;99.90;;;;;;5062333;28;20678;-71
2020/12/02 03:49:25;;;;;;;32.17;15.27;;;-2.70;99.90;;;;;;5081772;28;20260;-71
2020/12/02 03:51:52;;;;;;;30.20;15.23;;;-2.70;99.90;;;;;;5069007;28;20243;-71
2020/12/02 03:54:19;;;;;;;27.30;14.57;;;-2.70;99.90;;;;;;5080262;28;20250;-71
2020/12/02 03:56:46;;;;;;;24.57;12.87;;;-2.70;99.90;;;;;;5074096;28;20221;-72
2020/12/02 03:59:12;;;;;;;26.97;13.23;;;-2.80;99.90;;;;;;5085145;28;20288;-71
2020/12/02 04:01:38;;;;;;;29.00;15.43;;;-2.70;99.90;;;;;;5080273;28;20224;-70
2020/12/02 04:04:05;;;;;;;27.20;13.63;;;-2.70;99.90;;;;;;5067233;28;20244;-71
2020/12/02 04:06:31;;;;;;;26.20;15.00;;;-2.70;99.90;;;;;;5080202;28;20282;-71
2020/12/02 04:08:58;;;;;;;31.50;14.67;;;-2.60;99.90;;;;;;5081272;28;20723;-71
2020/12/02 04:11:25;;;;;;;29.73;14.57;;;-2.60;99.90;;;;;;5086634;28;20625;-72
2020/12/02 04:13:52;;;;;;;27.43;15.10;;;-2.60;99.90;;;;;;5081294;28;20209;-72
2020/12/02 04:16:19;;;;;;;25.30;12.80;;;-2.50;99.90;;;;;;5083406;28;20236;-72
2020/12/02 04:18:45;;;;;;;29.80;14.03;;;-2.50;99.90;;;;;;5080305;28;20243;-71
2020/12/02 04:21:12;;;;;;;27.00;14.10;;;-2.50;99.90;;;;;;5064123;28;20295;-71
2020/12/02 04:23:38;;;;;;;24.83;12.83;;;-2.50;99.90;;;;;;5073559;28;20457;-71
2020/12/02 04:26:05;;;;;;;24.63;12.77;;;-2.50;99.90;;;;;;5082435;28;20228;-71
2020/12/02 04:28:32;;;;;;;21.53;11.60;;;-2.50;99.90;;;;;;5080586;28;20712;-72
2020/12/02 04:30:59;;;;;;;23.50;14.07;;;-2.50;99.90;;;;;;5072695;28;20267;-71
2020/12/02 04:33:26;;;;;;;25.77;13.63;;;-2.50;99.90;;;;;;5076182;28;20649;-71
2020/12/02 04:35:52;;;;;;;27.60;14.63;;;-2.50;99.90;;;;;;5073109;28;20270;-71
2020/12/02 04:38:19;;;;;;;26.57;13.93;;;-2.50;99.90;;;;;;5072217;28;20269;-71
2020/12/02 04:40:45;;;;;;;23.77;13.20;;;-2.50;99.90;;;;;;5072606;28;20244;-71
2020/12/02 04:43:20;;;;;;;23.83;12.70;;;-2.50;99.90;;;;;;5073241;28;20622;-70
2020/12/02 04:45:48;;;;;;;23.13;12.47;;;-2.50;99.90;;;;;;5072844;28;20216;-70
2020/12/02 04:48:26;;;;;;;24.63;12.97;;;-2.50;99.90;;;;;;5072079;28;20205;-71
2020/12/02 04:50:58;;;;;;;25.10;13.47;;;-2.50;99.90;;;;;;5060553;28;20210;-72
2020/12/02 04:53:24;;;;;;;23.63;13.23;;;-2.40;99.90;;;;;;5080215;28;20240;-71
2020/12/02 04:55:55;;;;;;;26.60;14.33;;;-2.40;99.90;;;;;;5092340;28;20213;-71
2020/12/02 04:58:30;;;;;;;21.73;12.20;;;-2.40;99.90;;;;;;5090756;28;20718;-72
2020/12/02 05:01:15;;;;;;;23.17;12.60;;;-2.50;99.90;;;;;;5085177;28;20196;-72
2020/12/02 05:03:54;;;;;;;24.13;13.63;;;-2.40;99.90;;;;;;5089986;28;20200;-72
2020/12/02 05:06:23;;;;;;;22.70;13.10;;;-2.40;99.90;;;;;;5077222;28;20328;-72
2020/12/02 05:08:50;;;;;;;24.73;13.83;;;-2.40;99.90;;;;;;5063862;28;20716;-73
2020/12/02 05:11:17;;;;;;;23.37;13.27;;;-2.30;99.90;;;;;;5075596;28;20259;-74
2020/12/02 05:13:59;;;;;;;24.37;13.67;;;-2.30;99.90;;;;;;5075717;28;20278;-73
2020/12/02 05:16:26;;;;;;;25.50;13.83;;;-2.20;99.90;;;;;;5076799;28;20201;-74
2020/12/02 05:19:00;;;;;;;27.00;14.20;;;-2.20;99.90;;;;;;5075470;28;20248;-73
2020/12/02 05:21:31;;;;;;;20.63;12.83;;;-2.20;99.90;;;;;;5071377;28;20204;-74
2020/12/02 05:24:06;;;;;;;24.47;13.87;;;-2.10;99.90;;;;;;5079808;28;20321;-74
2020/12/02 05:26:35;;;;;;;22.93;12.90;;;-2.10;99.90;;;;;;5075223;28;20618;-74
2020/12/02 05:29:15;;;;;;;23.03;13.47;;;-2.10;99.90;;;;;;5076129;28;20205;-73
2020/12/02 05:31:44;;;;;;;25.17;14.30;;;-2.00;99.90;;;;;;5078282;28;20205;-73
2020/12/02 05:34:14;;;;;;;26.03;14.43;;;-2.00;99.90;;;;;;5075695;28;20275;-73
2020/12/02 05:36:47;;;;;;;24.93;13.80;;;-2.00;99.90;;;;;;5075557;28;20205;-74
2020/12/02 05:39:23;;;;;;;22.00;13.33;;;-1.90;99.90;;;;;;5075676;28;20198;-73
2020/12/02 05:41:53;;;;;;;22.70;13.47;;;-1.90;99.90;;;;;;5076001;28;20250;-73
2020/12/02 05:44:22;;;;;;;21.53;12.63;;;-1.90;99.90;;;;;;5075580;28;20213;-71
2020/12/02 05:46:55;;;;;;;24.33;12.73;;;-1.90;99.90;;;;;;5068317;28;20225;-71
2020/12/02 05:49:35;;;;;;;23.87;14.43;;;-1.90;99.90;;;;;;5069418;28;20225;-72
2020/12/02 05:52:02;;;;;;;23.23;13.20;;;-1.80;99.90;;;;;;5072734;28;20249;-72
2020/12/02 05:54:29;;;;;;;21.87;12.67;;;-1.80;99.90;;;;;;5074510;28;20201;-72
2020/12/02 05:56:58;;;;;;;21.50;12.80;;;-1.80;99.90;;;;;;5074750;28;20606;-72
2020/12/02 05:59:24;;;;;;;23.03;14.03;;;-1.80;99.90;;;;;;5074631;28;20209;-72
2020/12/02 06:01:56;;;;;;;25.23;14.33;;;-1.80;99.90;;;;;;5074217;28;20250;-73
2020/12/02 06:04:23;;;;;;;23.77;13.40;;;-1.70;99.90;;;;;;5074950;28;20343;-72
2020/12/02 06:06:53;;;;;;;24.27;13.80;;;-1.70;99.90;;;;;;5074386;28;20642;-73
2020/12/02 06:09:27;;;;;;;23.10;13.30;;;-1.70;99.90;;;;;;5067390;28;20213;-72
2020/12/02 06:12:03;;;;;;;22.17;13.23;;;-1.60;99.90;;;;;;5061248;28;20251;-71
2020/12/02 06:14:31;;;;;;;19.97;11.67;;;-1.60;99.90;;;;;;5075289;28;20262;-71
2020/12/02 06:16:59;;;;;;;24.10;12.20;;;-1.60;99.90;;;;;;5073627;28;20209;-72
2020/12/02 06:19:30;;;;;;;19.10;11.63;;;-1.60;99.90;;;;;;5063882;28;20719;-71
2020/12/02 06:21:58;;;;;;;23.93;11.93;;;-1.70;99.90;;;;;;5074119;28;20209;-72
2020/12/02 06:24:38;;;;;;;19.07;11.70;;;-1.70;99.90;;;;;;5074946;28;20286;-71
2020/12/02 06:27:41;;;;;;;22.87;13.07;;;-1.80;99.90;;;;;;5075221;28;20209;-72
2020/12/02 06:30:16;;;;;;;24.17;12.47;;;-1.80;99.90;;;;;;5072189;28;20636;-71
2020/12/02 06:32:59;;;;;;;23.47;12.03;;;-1.80;99.90;;;;;;5061764;28;20230;-72
2020/12/02 06:35:26;;;;;;;22.57;12.50;;;-1.80;99.90;;;;;;5074863;28;20642;-72
2020/12/02 06:38:15;;;;;;;22.40;13.80;;;-1.80;99.90;;;;;;5072584;28;20229;-72
2020/12/02 06:41:16;;;;;;;21.87;11.87;;;-1.80;99.90;;;;;;5083872;28;20242;-72
2020/12/02 06:43:53;;;;;;;22.90;13.70;;;-1.70;99.90;;;;;;5084117;28;20296;-72
2020/12/02 06:46:43;;;;;;;20.73;12.50;;;-1.70;99.90;;;;;;5077596;28;20849;-72
2020/12/02 06:49:11;;;;;;;18.47;11.53;;;-1.70;99.90;;;;;;5080939;28;20251;-72
2020/12/02 06:51:37;;;;;;;22.93;12.90;;;-1.70;99.90;;;;;;5086123;28;20574;-72
2020/12/02 06:54:04;;;;;;;24.50;13.37;;;-1.70;99.90;;;;;;5082329;28;20257;-71
2020/12/02 06:56:31;;;;;;;21.67;12.87;;;-1.70;99.90;;;;;;5079521;28;20209;-73
2020/12/02 06:59:02;;;;;;;16.50;10.17;;;-1.70;99.90;;;;;;5085722;28;20205;-73
2020/12/02 07:01:33;;;;;;;22.03;13.20;;;-1.60;99.90;;;;;;5072803;28;20205;-74
2020/12/02 07:04:04;;;;;;;20.47;12.27;;;-1.70;99.90;;;;;;5085011;28;20575;-75
2020/12/02 07:06:32;;;;;;;22.63;13.27;;;-1.80;99.90;;;;;;5069900;28;20264;-72
2020/12/02 07:09:14;;;;;;;25.77;11.80;;;-1.70;99.90;;;;;;5074130;28;20240;-77
2020/12/02 07:11:53;;;;;;;22.00;12.37;;;-1.60;99.90;;;;;;5075142;28;20250;-77
2020/12/02 07:14:30;;;;;;;24.60;13.93;;;-1.70;99.90;;;;;;5068809;28;20208;-76
2020/12/02 07:16:58;;;;;;;23.80;13.77;;;-1.70;99.90;;;;;;5079683;28;20220;-75
2020/12/02 07:19:27;;;;;;;27.07;15.10;;;-1.70;99.90;;;;;;5075094;28;20727;-75
2020/12/02 07:21:57;;;;;;;25.77;13.97;;;-1.60;99.90;;;;;;5073811;28;20259;-76
2020/12/02 07:24:27;;;;;;;24.90;13.83;;;-1.60;99.90;;;;;;5087114;28;20200;-77
2020/12/02 07:26:56;;;;;;;23.73;13.90;;;-1.60;99.90;;;;;;5080403;28;20235;-75
2020/12/02 07:29:26;;;;;;;23.83;13.93;;;-1.50;99.90;;;;;;5076409;28;20666;-76
2020/12/02 07:31:59;;;;;;;22.07;13.67;;;-1.50;99.90;;;;;;5076248;28;20715;-75
2020/12/02 07:34:26;;;;;;;25.73;13.60;;;-1.60;99.90;;;;;;5066406;28;20216;-76
2020/12/02 07:36:58;;;;;;;21.77;13.77;;;-1.60;99.90;;;;;;5076899;28;20267;-76
2020/12/02 07:39:26;;;;;;;22.63;14.03;;;-1.60;99.90;;;;;;5075851;28;20209;-78
2020/12/02 07:42:04;;;;;;;22.17;13.87;;;-1.60;99.90;;;;;;5065974;28;20255;-77
2020/12/02 07:44:38;;;;;;;23.37;12.87;;;-1.60;99.90;;;;;;5075415;28;20205;-76
2020/12/02 07:47:07;;;;;;;22.20;14.13;;;-1.60;99.90;;;;;;5075013;28;20216;-77
2020/12/02 07:49:36;;;;;;;23.30;14.23;;;-1.60;99.90;;;;;;5075206;28;20216;-78
2020/12/02 07:52:16;;;;;;;26.07;13.90;;;-1.60;99.90;;;;;;5070730;28;20209;-77
2020/12/02 07:54:43;;;;;;;24.97;14.20;;;-1.50;99.90;;;;;;5074664;28;20251;-77
2020/12/02 07:57:14;;;;;;;25.43;14.20;;;-1.60;99.90;;;;;;5074685;28;20259;-77
2020/12/02 07:59:48;;;;;;;28.20;14.10;;;-1.60;99.90;;;;;;5082023;28;20208;-77
2020/12/02 08:02:22;;;;;;;23.83;13.93;;;-1.50;99.90;;;;;;5081246;28;20639;-77
2020/12/02 08:04:58;;;;;;;24.93;13.70;;;-1.50;99.90;;;;;;5070918;28;20250;-76
2020/12/02 08:07:45;;;;;;;24.13;14.13;;;-1.50;99.90;;;;;;5078876;28;20208;-77
2020/12/02 08:10:26;;;;;;;24.27;14.07;;;-1.40;99.90;;;;;;5076801;28;20685;-76
2020/12/02 08:12:52;;;;;;;22.97;13.47;;;-1.40;99.90;;;;;;5082135;28;20267;-77
2020/12/02 08:15:19;;;;;;;25.40;13.83;;;-1.30;99.90;;;;;;5076574;28;20201;-75
2020/12/02 08:18:01;;;;;;;25.00;15.27;;;-1.30;99.90;;;;;;5078047;28;20556;-78
2020/12/02 08:20:32;;;;;;;26.47;13.80;;;-1.30;99.90;;;;;;5085753;28;20194;-76
2020/12/02 08:23:08;;;;;;;24.30;14.53;;;-1.30;99.90;;;;;;5079607;28;20223;-76
2020/12/02 08:25:37;;;;;;;25.90;14.57;;;-1.30;99.90;;;;;;5081778;28;20197;-76
2020/12/02 08:28:10;;;;;;;21.80;13.57;;;-1.30;99.90;;;;;;5066686;28;20604;-70
2020/12/02 08:30:38;;;;;;;22.20;13.90;;;-1.20;99.90;;;;;;5072974;28;20213;-70
2020/12/02 08:33:10;;;;;;;25.37;13.93;;;-1.20;99.90;;;;;;5066579;28;20248;-71
2020/12/02 08:35:40;;;;;;;24.23;14.10;;;-1.30;99.90;;;;;;5064127;28;20243;-71
2020/12/02 08:38:14;;;;;;;23.87;14.90;;;-1.30;99.90;;;;;;5066418;28;20218;-71
2020/12/02 08:40:46;;;;;;;23.43;14.40;;;-1.20;99.90;;;;;;5064909;28;20209;-70
2020/12/02 08:43:19;;;;;;;21.60;13.20;;;-1.20;99.90;;;;;;5071826;28;20207;-70
2020/12/02 08:45:59;;;;;;;21.83;12.97;;;-1.10;99.90;;;;;;5072216;28;20209;-74
2020/12/02 08:48:26;;;;;;;23.73;13.40;;;-1.10;99.90;;;;;;5058616;28;20209;-70
2020/12/02 08:50:52;;;;;;;23.07;14.00;;;-1.10;99.90;;;;;;5064062;28;20302;-72
2020/12/02 08:53:25;;;;;;;21.43;12.63;;;-1.10;99.90;;;;;;5069122;28;20279;-72
2020/12/02 08:55:53;;;;;;;24.13;14.67;;;-1.10;99.90;;;;;;5066150;28;20627;-73
2020/12/02 08:58:20;;;;;;;23.53;14.23;;;-1.20;99.90;;;;;;5071275;28;20205;-76
2020/12/02 09:00:47;;;;;;;23.30;13.47;;;-1.20;99.90;;;;;;5074427;28;20548;-75
2020/12/02 09:03:13;;;;;;;20.23;12.63;;;-1.20;99.90;;;;;;5074401;28;20240;-75
2020/12/02 09:05:41;;;;;;;27.27;14.40;;;-1.10;99.90;;;;;;5078093;28;20725;-75
2020/12/02 09:08:09;;;;;;;18.87;13.17;;;-1.20;99.90;;;;;;5080115;28;20204;-74
2020/12/02 09:10:36;;;;;;;21.13;13.37;;;-1.10;99.90;;;;;;5087282;28;20301;-74
2020/12/02 09:13:03;;;;;;;22.20;12.83;;;-1.10;99.90;;;;;;5079713;28;20224;-72
2020/12/02 09:15:30;;;;;;;20.63;12.80;;;-1.10;99.90;;;;;;5081605;28;20205;-73
2020/12/02 09:17:58;;;;;;;19.30;12.53;;;-1.10;99.90;;;;;;5077537;28;20606;-72
2020/12/02 09:20:26;;;;;;;19.07;12.13;;;-1.10;99.90;;;;;;5077779;28;20205;-71
2020/12/02 09:22:56;;;;;;;24.33;13.10;;;-0.90;99.90;;;;;;5074735;28;20550;-73
2020/12/02 09:25:23;;;;;;;19.70;12.47;;;-0.90;99.90;;;;;;5078969;28;20650;-72
2020/12/02 09:27:49;;;;;;;21.60;13.33;;;-1.00;99.90;;;;;;5078418;28;20205;-70
2020/12/02 09:30:17;;;;;;;23.37;13.03;;;-0.90;99.90;;;;;;5082446;28;20233;-71
2020/12/02 09:32:43;;;;;;;18.67;11.83;;;-0.90;99.90;;;;;;5079436;28;20214;-71
2020/12/02 09:35:10;;;;;;;20.20;12.73;;;-0.90;99.90;;;;;;5077690;28;20232;-69
2020/12/02 09:37:37;;;;;;;19.57;12.57;;;-0.90;99.90;;;;;;5074591;28;20250;-70
2020/12/02 09:40:07;;;;;;;23.83;13.20;;;-0.90;99.90;;;;;;5074682;28;20205;-69
2020/12/02 09:42:52;;;;;;;20.43;12.87;;;-0.80;99.90;;;;;;5073538;28;20201;-71
2020/12/02 09:45:29;;;;;;;20.30;12.47;;;-0.80;99.90;;;;;;5074440;28;20209;-70
2020/12/02 09:47:56;;;;;;;23.27;14.07;;;-0.80;99.90;;;;;;5075390;28;20600;-70
2020/12/02 09:50:23;;;;;;;18.57;11.97;;;-0.80;99.90;;;;;;5074842;28;20635;-71
2020/12/02 09:52:50;;;;;;;20.73;11.70;;;-0.70;99.90;;;;;;5071010;28;20209;-69
2020/12/02 09:55:21;;;;;;;22.00;13.07;;;-0.70;99.90;;;;;;5069471;28;20556;-70
2020/12/02 09:57:48;;;;;;;20.20;12.53;;;-0.70;99.90;;;;;;5077492;28;20208;-70
2020/12/02 10:00:17;;;;;;;20.90;11.80;;;-0.70;99.90;;;;;;5081394;28;20734;-70
2020/12/02 10:03:09;;;;;;;18.37;11.50;;;-0.70;99.90;;;;;;5079915;28;20205;-70
2020/12/02 10:06:10;;;;;;;17.97;10.83;;;-0.70;99.90;;;;;;5079628;28;20270;-70
2020/12/02 10:09:08;;;;;;;19.57;11.23;;;-0.80;99.90;;;;;;5079530;28;20602;-69
2020/12/02 10:11:45;;;;;;;17.67;10.43;;;-0.90;99.90;;;;;;5084974;28;20229;-70
2020/12/02 10:14:44;;;;;;;20.17;12.47;;;-0.90;99.90;;;;;;5079577;28;20221;-71
2020/12/02 10:17:26;;;;;;;18.23;11.73;;;-0.90;99.90;;;;;;5070502;28;20239;-70
2020/12/02 10:20:16;;;;;;;17.23;11.30;;;-0.90;99.90;;;;;;5073887;28;20270;-71
2020/12/02 10:23:02;;;;;;;20.37;12.57;;;-0.90;99.90;;;;;;5073218;28;20201;-71
2020/12/02 10:25:54;;;;;;;17.63;11.40;;;-0.80;99.90;;;;;;5071761;28;20232;-70
2020/12/02 10:28:30;;;;;;;21.47;12.53;;;-0.70;99.90;;;;;;5077931;28;20619;-70
2020/12/02 10:31:10;;;;;;;19.70;12.57;;;-0.70;99.90;;;;;;5074217;28;20231;-70
2020/12/02 10:33:53;;;;;;;19.93;12.97;;;-0.70;99.90;;;;;;5082978;28;20204;-70
2020/12/02 10:36:24;;;;;;;20.83;11.87;;;-0.60;99.90;;;;;;5082697;28;20197;-72
2020/12/02 10:38:54;;;;;;;22.60;12.67;;;-0.60;99.90;;;;;;5082481;28;20236;-70
2020/12/02 10:41:32;;;;;;;19.47;12.47;;;-0.50;99.90;;;;;;5085871;28;20197;-71
2020/12/02 10:44:17;;;;;;;20.87;12.77;;;-0.50;99.90;;;;;;5073782;28;20235;-72
2020/12/02 10:47:06;;;;;;;21.87;12.43;;;-0.40;99.90;;;;;;5071802;28;20237;-71
2020/12/02 10:49:33;;;;;;;21.40;12.93;;;-0.30;99.90;;;;;;5086638;28;20201;-72
2020/12/02 10:52:02;;;;;;;19.17;12.77;;;-0.30;99.90;;;;;;5070981;28;20354;-72
2020/12/02 10:54:35;;;;;;;20.43;12.73;;;-0.30;99.90;;;;;;5072712;28;20201;-71
2020/12/02 10:57:03;;;;;;;20.10;12.23;;;-0.30;99.90;;;;;;5072735;28;20307;-71
2020/12/02 10:59:30;;;;;;;22.47;12.33;;;-0.30;99.90;;;;;;5075055;28;20274;-70
2020/12/02 11:01:56;;;;;;;21.70;12.40;;;-0.30;99.90;;;;;;5075540;28;20217;-73
2020/12/02 11:04:23;;;;;;;18.97;11.73;;;-0.40;99.90;;;;;;5074457;28;20251;-70
2020/12/02 11:07:09;;;;;;;18.80;11.33;;;-0.40;99.90;;;;;;5076593;28;20240;-71
2020/12/02 11:10:01;;;;;;;19.47;11.93;;;-0.50;99.90;;;;;;5073629;28;20223;-71
2020/12/02 11:12:56;;;;;;;18.20;11.30;;;-0.50;99.90;;;;;;5073810;28;20697;-70
2020/12/02 11:15:34;;;;;;;18.90;12.07;;;-0.50;99.90;;;;;;5076147;28;20197;-70
2020/12/02 11:18:18;;;;;;;19.10;12.13;;;-0.40;99.90;;;;;;5074879;28;20239;-72
2020/12/02 11:20:52;;;;;;;18.00;12.07;;;-0.40;99.90;;;;;;5071460;28;20205;-70
2020/12/02 11:23:33;;;;;;;19.97;12.50;;;-0.40;99.90;;;;;;5068215;28;20198;-71
2020/12/02 11:26:11;;;;;;;18.20;11.73;;;-0.30;99.90;;;;;;5068838;28;20300;-71
2020/12/02 11:28:41;;;;;;;20.67;11.10;;;-0.30;99.90;;;;;;5074842;28;20224;-71
2020/12/02 11:31:20;;;;;;;17.80;11.07;;;-0.30;99.90;;;;;;5075166;28;20221;-72
2020/12/02 11:33:57;;;;;;;21.53;12.97;;;-0.20;99.90;;;;;;5069251;28;20577;-72
2020/12/02 11:36:39;;;;;;;20.40;13.20;;;-0.20;99.90;;;;;;5072390;28;20693;-72
2020/12/02 11:39:23;;;;;;;19.43;11.80;;;-0.10;99.90;;;;;;5071987;28;20262;-74
2020/12/02 11:41:56;;;;;;;20.20;11.97;;;-0.10;99.90;;;;;;5068690;28;20201;-71
2020/12/02 11:44:29;;;;;;;17.93;12.27;;;-0.10;99.90;;;;;;5076665;28;20251;-73
2020/12/02 11:47:04;;;;;;;22.17;12.90;;;-0.20;99.90;;;;;;5067696;28;20636;-72
2020/12/02 11:49:35;;;;;;;22.83;12.43;;;-0.10;99.90;;;;;;5068260;28;20246;-73
2020/12/02 11:52:12;;;;;;;18.77;12.33;;;-0.10;99.90;;;;;;5078212;28;20228;-73
2020/12/02 11:54:40;;;;;;;19.33;12.27;;;-0.10;99.90;;;;;;5068733;28;20209;-74
2020/12/02 11:57:11;;;;;;;19.00;12.77;;;-0.10;99.90;;;;;;5078349;28;20201;-72
2020/12/02 11:59:37;;;;;;;21.43;13.30;;;0.00;99.90;;;;;;5069489;28;20197;-73
2020/12/02 12:02:31;;;;;;;20.77;12.83;;;0.00;99.90;;;;;;5078374;28;20205;-72
2020/12/02 12:05:03;;;;;;;20.67;12.30;;;0.00;99.90;;;;;;5069857;28;20208;-74
2020/12/02 12:07:39;;;;;;;19.87;13.17;;;0.10;99.90;;;;;;5074599;28;20646;-72
2020/12/02 12:10:11;;;;;;;22.77;13.50;;;0.10;99.90;;;;;;5068468;28;20577;-71
2020/12/02 12:12:45;;;;;;;18.33;12.07;;;0.20;99.90;;;;;;5067326;28;20228;-71
2020/12/02 12:15:22;;;;;;;18.60;12.60;;;0.20;99.90;;;;;;5070777;28;20202;-72
2020/12/02 12:17:52;;;;;;;19.13;13.23;;;0.10;99.90;;;;;;5074508;28;20279;-71
2020/12/02 12:20:21;;;;;;;22.33;14.23;;;0.10;99.90;;;;;;5074689;28;21964;-70
2020/12/02 12:22:54;;;;;;;23.63;15.03;;;0.10;99.90;;;;;;5068355;28;20743;-72
2020/12/02 12:25:25;;;;;;;23.63;14.77;;;0.20;99.90;;;;;;5083592;28;20204;-73
2020/12/02 12:28:00;;;;;;;26.60;16.80;;;0.30;99.90;;;;;;5072054;28;20205;-72
2020/12/02 12:30:27;;;;;;;25.40;14.70;;;0.30;99.90;;;;;;5073491;28;20208;-71
2020/12/02 12:33:03;;;;;;;27.63;15.43;;;0.40;99.90;;;;;;5074064;28;20252;-71
2020/12/02 12:35:35;;;;;;;28.70;16.87;;;0.40;99.90;;;;;;5090441;28;20297;-73
2020/12/02 12:38:21;;;;;;;23.80;15.63;;;0.40;99.60;;;;;;5089162;28;20197;-72
2020/12/02 12:40:52;;;;;;;28.87;15.77;;;0.50;99.70;;;;;;5077877;28;20700;-72
2020/12/02 12:43:25;;;;;;;31.07;17.20;;;0.50;99.50;;;;;;5069089;28;20201;-72
2020/12/02 12:45:57;;;;;;;29.57;17.77;;;0.50;99.40;;;;;;5074048;28;20672;-73
2020/12/02 12:48:24;;;;;;;30.70;18.17;;;0.50;99.10;;;;;;5088121;28;20617;-72
2020/12/02 12:50:52;;;;;;;30.47;18.13;;;0.50;99.30;;;;;;5080774;28;20252;-72
2020/12/02 12:53:21;;;;;;;27.40;17.47;;;0.50;99.30;;;;;;5080993;28;20240;-71